Time;durP1;ratioP1;P1;durP2;ratioP2;P2;SDS_P1;SDS_P2;PMS_P1;PMS_P2;Temp;Humidity;BMP_temperature;BMP_pressure;BME280_temperature;BME280_humidity;BME280_pressure;Samples;Min_cycle;Max_cycle;Signal;HPM_P1;HPM_P2
2024/03/13 00:01:11;;;;;;;8.53;3.93;;;;;;;0.93;88.23;100333.38;4985080;28;20114;-73
2024/03/13 00:03:40;;;;;;;9.35;3.92;;;;;;;0.89;88.10;100329.25;5034830;28;20064;-72
2024/03/13 00:06:09;;;;;;;13.23;4.33;;;;;;;0.94;88.26;100328.06;5018391;28;20049;-73
2024/03/13 00:08:39;;;;;;;6.37;3.63;;;;;;;0.93;88.65;100329.00;5034498;28;20032;-72
2024/03/13 00:11:09;;;;;;;7.90;4.00;;;;;;;0.89;88.24;100330.06;4997736;28;20057;-72
2024/03/13 00:13:35;;;;;;;4.17;2.90;;;;;;;0.86;88.52;100330.22;4960593;28;20056;-69
2024/03/13 00:16:01;;;;;;;5.47;3.10;;;;;;;0.79;88.53;100328.88;4927655;28;20144;-70
2024/03/13 00:18:28;;;;;;;6.80;3.13;;;;;;;0.79;88.89;100328.88;4959297;28;20042;-71
2024/03/13 00:20:53;;;;;;;5.63;3.10;;;;;;;0.84;88.99;100331.25;4943268;28;20116;-71
2024/03/13 00:23:19;;;;;;;5.03;2.87;;;;;;;0.88;89.14;100324.91;4920809;28;20145;-72
2024/03/13 00:25:49;;;;;;;4.93;3.17;;;;;;;0.95;89.05;100334.16;4910470;28;20137;-72
2024/03/13 00:28:15;;;;;;;6.97;2.90;;;;;;;0.91;88.41;100330.84;4937256;28;20082;-72
2024/03/13 00:30:42;;;;;;;8.80;3.93;;;;;;;0.93;88.32;100338.59;4938652;28;20054;-71
2024/03/13 00:33:09;;;;;;;5.60;3.40;;;;;;;0.90;88.39;100337.00;4919897;29;20055;-71
2024/03/13 00:35:36;;;;;;;4.97;2.93;;;;;;;0.93;88.12;100338.59;4903941;29;20138;-71
2024/03/13 00:38:03;;;;;;;5.07;2.80;;;;;;;0.90;88.43;100347.47;4905324;29;20102;-75
2024/03/13 00:40:32;;;;;;;5.27;2.90;;;;;;;0.87;88.47;100336.31;4886649;29;20223;-73
2024/03/13 00:42:57;;;;;;;7.60;3.30;;;;;;;0.76;89.60;100341.25;4933466;29;20071;-74
2024/03/13 00:45:23;;;;;;;5.50;3.30;;;;;;;0.75;89.65;100332.59;4888695;29;20055;-72
2024/03/13 00:47:49;;;;;;;4.10;2.90;;;;;;;0.73;90.00;100333.56;4919862;29;20051;-70
2024/03/13 00:50:15;;;;;;;6.43;3.20;;;;;;;0.74;90.09;100338.72;4919739;29;20344;-71
2024/03/13 00:52:42;;;;;;;5.93;3.20;;;;;;;0.71;90.56;100336.25;4888749;29;20063;-71
2024/03/13 00:55:10;;;;;;;5.27;3.00;;;;;;;0.64;90.63;100320.97;4904749;28;20433;-71
2024/03/13 00:57:42;;;;;;;5.73;2.93;;;;;;;0.72;90.56;100337.97;4923508;28;20082;-72
2024/03/13 01:00:10;;;;;;;6.40;2.90;;;;;;;0.68;90.57;100335.56;4939195;28;20445;-71
2024/03/13 01:02:36;;;;;;;7.83;2.93;;;;;;;0.61;90.38;100337.69;4922982;28;20066;-73
2024/03/13 01:05:05;;;;;;;3.67;2.43;;;;;;;0.62;90.66;100325.44;4979309;28;20669;-72
2024/03/13 01:07:34;;;;;;;6.63;3.03;;;;;;;0.67;91.19;100331.28;5000446;28;20553;-72
2024/03/13 01:10:03;;;;;;;5.03;2.43;;;;;;;0.61;90.96;100331.59;4955859;28;20118;-71
2024/03/13 01:12:31;;;;;;;4.63;2.93;;;;;;;0.61;91.44;100328.97;4928264;29;20097;-71
2024/03/13 01:14:59;;;;;;;5.57;3.00;;;;;;;0.67;92.04;100324.28;4909880;29;20086;-71
2024/03/13 01:17:27;;;;;;;4.20;2.57;;;;;;;0.65;92.51;100330.50;4892266;29;20043;-71
2024/03/13 01:19:54;;;;;;;4.67;2.60;;;;;;;0.59;92.40;100325.59;4908360;29;20090;-71
2024/03/13 01:22:22;;;;;;;7.13;2.97;;;;;;;0.60;92.32;100322.91;4923082;29;20509;-70
2024/03/13 01:24:56;;;;;;;6.83;2.73;;;;;;;0.67;92.19;100326.06;4916518;29;20151;-71
2024/03/13 01:27:22;;;;;;;6.40;3.30;;;;;;;0.53;92.13;100332.00;4900984;29;20423;-72
2024/03/13 01:29:56;;;;;;;5.53;2.77;;;;;;;0.67;93.16;100332.13;4918405;29;20055;-70
2024/03/13 01:32:40;;;;;;;7.03;3.30;;;;;;;0.68;93.88;100333.81;4869838;29;20059;-72
2024/03/13 01:35:31;;;;;;;4.93;2.90;;;;;;;0.74;94.75;100335.28;4862877;29;20108;-71
2024/03/13 01:38:01;;;;;;;6.10;3.70;;;;;;;0.63;94.01;100343.66;4826118;29;20066;-72
2024/03/13 01:56:57;;;;;;;9.50;3.90;;;;;;;0.47;95.71;100344.50;4819317;29;20181;-70
2024/03/13 02:02:58;;;;;;;13.20;4.70;;;;;;;0.43;95.14;100346.44;4847241;29;20154;-70
2024/03/13 02:05:48;;;;;;;7.53;4.30;;;;;;;0.42;95.73;100354.34;4862990;29;20084;-69
2024/03/13 02:08:17;;;;;;;13.47;5.53;;;;;;;0.20;98.79;100358.97;4844896;29;20064;-69
2024/03/13 02:10:49;;;;;;;8.93;5.10;;;;;;;0.10;100.00;100368.16;4859966;29;20427;-70
2024/03/13 02:13:29;;;;;;;8.87;4.90;;;;;;;-0.02;100.00;100367.00;4860437;29;20133;-71
2024/03/13 02:16:09;;;;;;;8.73;4.43;;;;;;;-0.11;100.00;100352.63;4845008;29;20501;-72
2024/03/13 02:18:59;;;;;;;7.57;4.20;;;;;;;-0.16;100.00;100362.47;4834525;29;20054;-72
2024/03/13 02:21:32;;;;;;;8.40;4.20;;;;;;;-0.18;100.00;100353.00;4854457;29;20089;-71
2024/03/13 02:24:06;;;;;;;7.77;3.70;;;;;;;-0.16;100.00;100349.41;4841347;29;20089;-72
2024/03/13 02:26:42;;;;;;;8.60;4.07;;;;;;;-0.12;100.00;100366.59;4822182;29;20090;-72
2024/03/13 02:29:12;;;;;;;8.07;4.00;;;;;;;-0.20;100.00;100360.91;4873791;29;20060;-73
2024/03/13 02:31:43;;;;;;;9.90;4.37;;;;;;;-0.16;100.00;100361.59;4934315;29;20091;-70
2024/03/13 02:34:24;;;;;;;8.80;4.90;;;;;;;-0.22;100.00;100373.19;4936698;29;20060;-75
2024/03/13 02:36:51;;;;;;;10.27;4.67;;;;;;;-0.27;100.00;100356.91;4883746;29;20052;-72
2024/03/13 02:39:18;;;;;;;9.10;5.00;;;;;;;-0.30;100.00;100364.88;4872982;29;20115;-71
2024/03/13 02:41:46;;;;;;;8.57;4.30;;;;;;;-0.35;100.00;100356.41;4896417;29;20128;-72
2024/03/13 02:44:12;;;;;;;8.40;4.57;;;;;;;-0.34;100.00;100365.91;4877705;29;20064;-68
2024/03/13 02:46:38;;;;;;;8.80;3.77;;;;;;;-0.33;100.00;100362.41;4895221;29;20059;-71
2024/03/13 02:49:05;;;;;;;8.87;4.00;;;;;;;-0.32;100.00;100355.41;4883760;29;20523;-71
2024/03/13 02:51:31;;;;;;;7.90;4.07;;;;;;;-0.31;100.00;100360.56;4915315;29;20115;-68
2024/03/13 02:54:04;;;;;;;7.82;3.63;;;;;;;-0.29;100.00;100356.13;4933815;29;20051;-69
2024/03/13 02:56:36;;;;;;;9.97;4.17;;;;;;;-0.33;100.00;100359.81;4888368;29;20098;-70
2024/03/13 02:59:02;;;;;;;8.30;4.00;;;;;;;-0.32;100.00;100358.88;4930245;29;20097;-69
2024/03/13 03:01:28;;;;;;;7.00;4.67;;;;;;;-0.31;100.00;100357.13;4935782;28;20078;-69
2024/03/13 03:03:54;;;;;;;7.43;4.40;;;;;;;-0.33;100.00;100362.41;4956326;28;20062;-68
2024/03/13 03:06:19;;;;;;;7.23;3.87;;;;;;;-0.31;100.00;100363.16;4956360;28;20059;-68
2024/03/13 03:08:46;;;;;;;6.67;3.70;;;;;;;-0.32;100.00;100360.63;4956358;28;20482;-68
2024/03/13 03:11:12;;;;;;;6.63;3.40;;;;;;;-0.32;100.00;100358.03;4940000;28;20101;-71
2024/03/13 03:13:40;;;;;;;6.77;3.70;;;;;;;-0.32;100.00;100363.25;4971554;28;20153;-66
2024/03/13 03:16:08;;;;;;;8.43;3.50;;;;;;;-0.31;100.00;100367.56;4957140;28;20390;-69
2024/03/13 03:18:34;;;;;;;7.10;3.43;;;;;;;-0.25;100.00;100362.88;4957429;28;20078;-69
2024/03/13 03:21:06;;;;;;;9.87;4.27;;;;;;;-0.15;100.00;100365.91;4972266;28;20114;-71
2024/03/13 03:23:33;;;;;;;5.50;3.40;;;;;;;-0.25;100.00;100360.25;4955621;28;20098;-70
2024/03/13 03:26:02;;;;;;;6.40;3.65;;;;;;;-0.28;100.00;100364.81;4905619;29;20137;-73
2024/03/13 03:28:29;;;;;;;7.73;4.10;;;;;;;-0.26;100.00;100360.34;4920201;29;20537;-67
2024/03/13 03:30:58;;;;;;;5.93;3.80;;;;;;;-0.22;100.00;100361.91;4889477;29;20063;-67
2024/03/13 03:33:24;;;;;;;7.73;3.97;;;;;;;-0.24;100.00;100355.91;4919896;29;20063;-72
2024/03/13 03:35:51;;;;;;;5.53;3.50;;;;;;;-0.19;100.00;100361.75;4918898;29;20399;-70
2024/03/13 03:38:22;;;;;;;6.50;3.40;;;;;;;-0.15;100.00;100353.69;4903118;29;20138;-71
2024/03/13 03:40:48;;;;;;;4.93;3.03;;;;;;;-0.10;100.00;100362.16;4908842;28;20205;-73
2024/03/13 03:43:17;;;;;;;8.03;3.70;;;;;;;-0.04;100.00;100361.88;5002719;28;20584;-68
2024/03/13 03:45:46;;;;;;;7.67;3.40;;;;;;;-0.11;100.00;100365.66;5017562;28;20070;-68
2024/03/13 03:48:17;;;;;;;6.63;3.93;;;;;;;-0.14;100.00;100368.44;5017460;28;20072;-73
2024/03/13 03:50:49;;;;;;;7.70;4.07;;;;;;;-0.22;100.00;100367.13;5040806;28;20049;-71
2024/03/13 03:53:19;;;;;;;9.03;4.13;;;;;;;-0.22;100.00;100365.38;5018098;28;20101;-76
2024/03/13 03:55:46;;;;;;;7.87;3.90;;;;;;;-0.21;100.00;100368.78;5001943;28;20112;-73
2024/03/13 03:58:12;;;;;;;8.63;4.73;;;;;;;-0.31;100.00;100373.59;4978247;28;20401;-76
2024/03/13 04:00:41;;;;;;;8.53;4.30;;;;;;;-0.31;100.00;100371.00;4985862;28;20064;-74
2024/03/13 04:03:09;;;;;;;8.73;4.07;;;;;;;-0.28;100.00;100370.03;5009342;28;20068;-73
2024/03/13 04:05:35;;;;;;;6.10;3.73;;;;;;;-0.27;100.00;100369.94;5050033;28;20048;-70
2024/03/13 04:08:03;;;;;;;9.77;4.27;;;;;;;-0.26;100.00;100369.03;5072729;28;20056;-74
2024/03/13 04:10:32;;;;;;;6.82;4.03;;;;;;;-0.26;100.00;100370.78;5042772;28;20182;-74
2024/03/13 04:13:00;;;;;;;10.97;4.57;;;;;;;-0.31;100.00;100357.94;5030094;28;21119;-72
2024/03/13 04:15:26;;;;;;;6.40;4.07;;;;;;;-0.35;100.00;100366.84;5024110;28;20049;-71
2024/03/13 04:17:56;;;;;;;10.47;4.93;;;;;;;-0.43;100.00;100362.94;4976396;28;20034;-71
2024/03/13 04:20:25;;;;;;;13.40;5.40;;;;;;;-0.49;100.00;100356.22;4994432;28;20481;-73
2024/03/13 04:22:50;;;;;;;12.47;5.73;;;;;;;-0.56;100.00;100361.78;4993053;28;20050;-74
2024/03/13 04:25:18;;;;;;;12.50;6.03;;;;;;;-0.59;100.00;100365.41;4976739;28;20042;-71
2024/03/13 04:27:45;;;;;;;10.47;5.33;;;;;;;-0.54;100.00;100368.63;4956535;28;20043;-73
2024/03/13 04:30:14;;;;;;;10.33;5.03;;;;;;;-0.53;100.00;100377.28;4961944;28;20042;-72
2024/03/13 04:32:44;;;;;;;10.53;4.90;;;;;;;-0.43;100.00;100375.97;4994357;28;20076;-71
2024/03/13 04:35:12;;;;;;;11.97;5.07;;;;;;;-0.50;100.00;100377.16;4978362;28;20086;-71
2024/03/13 04:37:39;;;;;;;9.10;4.90;;;;;;;-0.49;100.00;100373.63;4959566;28;20050;-75
2024/03/13 04:40:14;;;;;;;8.73;4.50;;;;;;;-0.34;100.00;100384.19;4919451;29;20047;-73
2024/03/13 04:42:41;;;;;;;13.50;5.40;;;;;;;-0.38;100.00;100380.03;4897443;29;20383;-71
2024/03/13 04:45:07;;;;;;;12.60;5.50;;;;;;;-0.35;100.00;100387.72;4911681;29;20450;-74
2024/03/13 04:47:34;;;;;;;13.90;5.57;;;;;;;-0.39;100.00;100382.72;4961958;28;20436;-73
2024/03/13 04:50:02;;;;;;;9.63;5.10;;;;;;;-0.39;100.00;100386.19;5009924;28;20064;-72
2024/03/13 04:52:29;;;;;;;13.37;5.20;;;;;;;-0.36;100.00;100386.03;4978784;28;20069;-73
2024/03/13 04:54:56;;;;;;;9.50;5.50;;;;;;;-0.28;100.00;100385.69;5011645;28;20040;-70
2024/03/13 04:57:22;;;;;;;11.23;5.40;;;;;;;-0.32;100.00;100386.72;5009903;28;20415;-75
2024/03/13 04:59:50;;;;;;;12.80;5.40;;;;;;;-0.29;100.00;100383.97;4978997;28;20037;-76
2024/03/13 05:02:17;;;;;;;9.87;5.47;;;;;;;-0.28;100.00;100388.28;5011174;28;20044;-75
2024/03/13 05:04:42;;;;;;;11.17;5.63;;;;;;;-0.32;100.00;100398.03;5009455;28;20045;-75
2024/03/13 05:07:12;;;;;;;12.13;5.30;;;;;;;-0.30;100.00;100387.50;5002464;28;20060;-76
2024/03/13 05:09:44;;;;;;;10.93;5.43;;;;;;;-0.28;100.00;100386.50;5007111;28;20050;-76
2024/03/13 05:12:13;;;;;;;11.43;5.60;;;;;;;-0.27;100.00;100384.75;5000958;28;20046;-75
2024/03/13 05:14:39;;;;;;;9.83;5.23;;;;;;;-0.26;100.00;100379.47;4996803;28;20124;-76
2024/03/13 05:17:09;;;;;;;8.53;4.80;;;;;;;-0.27;100.00;100388.22;4968264;28;20218;-75
2024/03/13 05:19:35;;;;;;;12.43;6.10;;;;;;;-0.30;100.00;100377.06;4969091;28;20041;-75
2024/03/13 05:22:01;;;;;;;12.47;5.93;;;;;;;-0.30;100.00;100382.28;5002928;28;20099;-75
2024/03/13 05:24:29;;;;;;;11.17;6.50;;;;;;;-0.28;100.00;100389.13;4984065;28;20065;-74
2024/03/13 05:26:57;;;;;;;13.33;6.40;;;;;;;-0.30;100.00;100380.53;5000805;28;20084;-74
2024/03/13 05:29:27;;;;;;;11.97;6.20;;;;;;;-0.25;100.00;100385.53;4983831;28;20115;-75
2024/03/13 05:31:55;;;;;;;12.13;6.27;;;;;;;-0.27;100.00;100390.84;5000701;28;20111;-75
2024/03/13 05:34:24;;;;;;;9.90;5.97;;;;;;;-0.35;100.00;100387.72;4985173;28;20085;-75
2024/03/13 05:36:55;;;;;;;16.45;6.40;;;;;;;-0.34;100.00;100380.75;5018241;28;20083;-75
2024/03/13 05:39:24;;;;;;;12.87;6.50;;;;;;;-0.31;100.00;100381.44;4985430;28;20417;-76
2024/03/13 05:41:49;;;;;;;12.37;6.63;;;;;;;-0.32;100.00;100384.13;4968773;28;20084;-75
2024/03/13 05:44:17;;;;;;;13.17;6.63;;;;;;;-0.39;100.00;100372.28;5001169;28;20103;-75
2024/03/13 05:46:56;;;;;;;16.07;7.47;;;;;;;-0.34;100.00;100384.19;5000380;28;20151;-78
2024/03/13 05:49:22;;;;;;;14.37;7.17;;;;;;;-0.35;100.00;100382.50;4986222;28;20067;-75
2024/03/13 05:51:48;;;;;;;12.77;6.97;;;;;;;-0.33;100.00;100378.06;4990042;28;20128;-73
2024/03/13 05:54:14;;;;;;;12.60;7.07;;;;;;;-0.33;100.00;100378.06;5005424;28;20136;-75
2024/03/13 05:56:40;;;;;;;17.03;7.10;;;;;;;-0.31;100.00;100378.81;4989132;28;20091;-76
2024/03/13 05:59:06;;;;;;;15.07;8.23;;;;;;;-0.26;100.00;100384.69;4989067;28;20064;-74
2024/03/13 06:01:32;;;;;;;17.00;7.83;;;;;;;-0.22;100.00;100383.63;5037845;28;20135;-74
2024/03/13 06:04:01;;;;;;;20.67;8.47;;;;;;;-0.13;100.00;100382.34;5037412;28;20084;-74
2024/03/13 06:06:28;;;;;;;16.53;7.77;;;;;;;-0.11;100.00;100378.72;5004724;28;20071;-74
2024/03/13 06:08:56;;;;;;;16.63;8.03;;;;;;;-0.06;100.00;100379.34;5004353;28;20140;-74
2024/03/13 06:11:22;;;;;;;15.23;7.97;;;;;;;-0.01;100.00;100371.31;5036411;28;20063;-76
2024/03/13 06:13:49;;;;;;;20.27;9.40;;;;;;;0.10;100.00;100376.00;4987822;28;20139;-76
2024/03/13 06:16:18;;;;;;;13.40;7.40;;;;;;;0.09;100.00;100387.38;5020201;28;20109;-76
2024/03/13 06:18:44;;;;;;;15.93;8.00;;;;;;;0.12;100.00;100387.22;5004401;28;20044;-75
2024/03/13 06:21:16;;;;;;;18.90;7.67;;;;;;;0.20;100.00;100380.69;5016098;28;20091;-75
2024/03/13 06:23:47;;;;;;;17.90;8.37;;;;;;;0.20;100.00;100395.53;4999463;28;20049;-74
2024/03/13 06:26:17;;;;;;;17.27;8.23;;;;;;;0.35;100.00;100390.41;4984345;28;20083;-74
2024/03/13 06:31:29;;;;;;;16.50;7.83;;;;;;;0.69;100.00;100389.56;4976548;28;20466;-75
2024/03/13 06:33:57;;;;;;;17.57;7.63;;;;;;;0.87;100.00;100396.44;4976838;28;20247;-75
2024/03/13 06:36:24;;;;;;;16.73;7.30;;;;;;;1.04;100.00;100401.66;4977536;28;20050;-75
2024/03/13 06:38:51;;;;;;;18.47;7.90;;;;;;;1.24;100.00;100404.94;4961074;28;20593;-74
2024/03/13 06:41:19;;;;;;;19.17;7.70;;;;;;;1.27;99.04;100402.16;4957233;28;20462;-74
2024/03/13 06:43:45;;;;;;;13.47;7.50;;;;;;;1.32;98.44;100399.28;4973022;28;20051;-76
2024/03/13 06:46:12;;;;;;;14.03;6.60;;;;;;;1.51;97.42;100406.06;4957191;28;20050;-74
2024/03/13 06:48:39;;;;;;;13.43;6.50;;;;;;;1.76;95.35;100405.56;4957340;28;20512;-74
2024/03/13 06:51:08;;;;;;;14.70;6.93;;;;;;;1.85;92.76;100412.06;4925540;28;20118;-75
2024/03/13 06:53:37;;;;;;;12.03;6.27;;;;;;;2.16;91.53;100412.06;4941836;28;20062;-73
2024/03/13 06:56:04;;;;;;;11.60;6.30;;;;;;;2.33;89.28;100415.41;4956979;28;20055;-73
2024/03/13 06:58:31;;;;;;;12.27;6.90;;;;;;;2.55;87.08;100415.84;4940990;28;20508;-74
2024/03/13 07:01:01;;;;;;;12.40;6.40;;;;;;;2.79;85.20;100426.69;4940961;28;20063;-74
2024/03/13 07:03:28;;;;;;;16.60;7.88;;;;;;;3.05;83.75;100428.63;4921457;29;20067;-74
2024/03/13 07:05:54;;;;;;;10.03;5.90;;;;;;;3.27;81.46;100419.38;4934498;29;20051;-73
2024/03/13 07:08:20;;;;;;;10.70;6.23;;;;;;;3.61;78.56;100410.28;4918496;29;20059;-74
2024/03/13 07:10:47;;;;;;;16.63;6.97;;;;;;;4.05;76.91;100426.69;4934271;29;20068;-73
2024/03/13 07:13:19;;;;;;;17.07;7.67;;;;;;;4.45;73.25;100430.22;4902569;29;20048;-73
2024/03/13 07:15:45;;;;;;;;;;;;;;;4.82;70.48;100429.47;4900582;29;20062;-73
2024/03/13 07:18:15;;;;;;;12.33;6.47;;;;;;;5.09;69.00;100432.88;4940459;28;20019;-71
2024/03/13 07:20:49;;;;;;;15.85;6.95;;;;;;;5.30;66.04;100414.78;4992811;28;20151;-72
2024/03/13 07:23:18;;;;;;;13.63;6.73;;;;;;;5.79;64.70;100426.19;4995003;28;20180;-72
2024/03/13 07:25:44;;;;;;;14.37;7.03;;;;;;;6.12;61.90;100422.00;4979663;28;20065;-73
2024/03/13 07:28:15;;;;;;;19.50;9.13;;;;;;;7.06;59.54;100425.53;4971677;28;20058;-72
2024/03/13 07:30:54;;;;;;;14.90;8.50;;;;;;;9.27;54.90;100425.94;4908769;28;20065;-72
2024/03/13 07:33:20;;;;;;;14.45;8.18;;;;;;;12.67;45.96;100434.78;4943613;28;20046;-72
2024/03/13 07:35:48;;;;;;;14.18;7.90;;;;;;;16.28;37.12;100430.38;4981153;28;20053;-72
2024/03/13 07:38:23;;;;;;;14.25;6.95;;;;;;;19.37;29.76;100433.72;4981761;28;20041;-73
2024/03/13 07:40:52;;;;;;;14.77;7.50;;;;;;;21.67;25.08;100423.53;4955648;28;20186;-72
2024/03/13 07:43:23;;;;;;;10.02;7.07;;;;;;;23.89;21.85;100433.13;4939980;28;20046;-73
2024/03/13 07:45:55;;;;;;;13.80;7.03;;;;;;;25.60;19.08;100427.84;4955470;28;20054;-74
2024/03/13 07:48:21;;;;;;;10.23;6.47;;;;;;;26.92;17.42;100427.69;4955420;28;20117;-73
2024/03/13 07:50:49;;;;;;;12.38;6.05;;;;;;;27.97;16.22;100421.25;4923535;28;20062;-73
2024/03/13 07:53:21;;;;;;;10.45;6.28;;;;;;;28.28;14.62;100415.13;4891890;28;20054;-74
2024/03/13 07:55:51;;;;;;;7.47;5.55;;;;;;;28.58;14.58;100418.28;4923342;28;20264;-73
2024/03/13 07:58:21;;;;;;;8.88;5.28;;;;;;;28.81;14.21;100414.41;4962810;28;20092;-71
2024/03/13 08:00:52;;;;;;;9.77;6.35;;;;;;;28.29;13.99;100416.81;4993877;28;20048;-70
2024/03/13 08:03:23;;;;;;;9.13;5.57;;;;;;;28.27;13.50;100423.56;4974106;28;20481;-73
2024/03/13 08:05:51;;;;;;;9.55;5.82;;;;;;;27.69;13.71;100414.00;4973792;28;20100;-74
2024/03/13 08:08:24;;;;;;;8.95;5.50;;;;;;;28.00;13.87;100413.41;4975365;28;20134;-71
2024/03/13 08:10:50;;;;;;;8.32;5.95;;;;;;;28.28;12.82;100415.13;4999460;28;20151;-72
2024/03/13 08:13:19;;;;;;;8.05;4.90;;;;;;;28.04;13.26;100408.28;5016446;28;20052;-72
2024/03/13 08:15:48;;;;;;;5.93;4.55;;;;;;;28.09;12.94;100423.91;5033184;28;20041;-72
2024/03/13 08:18:16;;;;;;;5.13;3.72;;;;;;;26.42;13.40;100403.00;4986310;28;20435;-73
2024/03/13 08:20:51;;;;;;;5.10;3.83;;;;;;;26.54;13.67;100413.88;5004106;28;20044;-72
2024/03/13 08:23:20;;;;;;;7.40;3.20;;;;;;;26.35;13.64;100413.22;5022330;28;20198;-73
2024/03/13 08:25:46;;;;;;;3.40;3.10;;;;;;;26.03;13.28;100406.53;5004931;28;20041;-73
2024/03/13 08:28:18;;;;;;;3.85;2.83;;;;;;;25.57;13.38;100414.72;5005448;28;20139;-73
2024/03/13 08:30:50;;;;;;;5.63;3.60;;;;;;;25.13;13.48;100402.44;4998570;28;20077;-71
2024/03/13 08:33:20;;;;;;;5.22;3.42;;;;;;;26.02;13.55;100394.81;4999069;28;20074;-72
2024/03/13 08:35:48;;;;;;;3.35;3.05;;;;;;;26.06;13.24;100404.16;4997647;28;20136;-73
2024/03/13 08:38:16;;;;;;;4.95;3.60;;;;;;;26.40;12.90;100394.25;4949551;28;20112;-72
2024/03/13 08:40:44;;;;;;;4.55;3.20;;;;;;;25.99;13.15;100400.75;4997897;28;20056;-72
2024/03/13 08:43:19;;;;;;;3.03;2.75;;;;;;;25.67;13.33;100399.44;4942899;28;20560;-72
2024/03/13 08:45:46;;;;;;;3.83;2.83;;;;;;;23.70;13.67;100398.88;4943550;28;20397;-75
2024/03/13 08:48:11;;;;;;;3.55;3.20;;;;;;;22.93;14.53;100396.59;4910916;28;20067;-73
2024/03/13 08:50:38;;;;;;;3.83;3.53;;;;;;;22.51;15.33;100392.69;4923578;29;20518;-75
2024/03/13 08:53:14;;;;;;;5.20;3.58;;;;;;;21.75;15.46;100412.53;4908100;29;20051;-76
2024/03/13 08:55:41;;;;;;;5.40;4.10;;;;;;;21.39;15.82;100395.91;4925620;29;20512;-75
2024/03/13 08:58:10;;;;;;;5.65;4.40;;;;;;;20.72;16.29;100406.00;4908559;29;20088;-74
2024/03/13 09:00:43;;;;;;;7.72;4.63;;;;;;;20.56;16.43;100392.91;4917184;29;20158;-74
2024/03/13 09:03:11;;;;;;;6.70;4.05;;;;;;;21.31;16.01;100385.31;4871766;29;20056;-75
2024/03/13 09:05:42;;;;;;;4.70;3.80;;;;;;;21.58;16.35;100384.25;4870646;29;20059;-75
2024/03/13 09:08:18;;;;;;;7.45;4.63;;;;;;;21.35;16.41;100382.00;4870186;29;20056;-76
2024/03/13 09:10:47;;;;;;;5.20;4.05;;;;;;;22.37;15.37;100385.66;4902413;29;20064;-76
2024/03/13 09:13:17;;;;;;;4.13;3.70;;;;;;;24.04;14.87;100382.03;4890004;29;20513;-75
2024/03/13 09:15:46;;;;;;;6.75;4.30;;;;;;;24.51;14.21;100395.63;4934444;29;20498;-72
2024/03/13 09:18:15;;;;;;;6.32;4.20;;;;;;;23.68;14.54;100384.72;4919810;29;20047;-74
2024/03/13 09:20:41;;;;;;;10.68;5.15;;;;;;;23.47;14.41;100385.97;4903919;29;20059;-74
2024/03/13 09:23:12;;;;;;;7.90;5.00;;;;;;;22.83;14.96;100382.72;4919911;29;20048;-73
2024/03/13 09:25:40;;;;;;;5.33;4.50;;;;;;;22.84;14.87;100382.50;4920027;29;20059;-73
2024/03/13 09:28:08;;;;;;;5.70;5.10;;;;;;;23.58;14.48;100377.09;4914169;29;20061;-76
2024/03/13 09:30:35;;;;;;;6.47;5.03;;;;;;;23.18;14.79;100392.88;4945904;28;20077;-73
2024/03/13 09:33:08;;;;;;;5.32;4.13;;;;;;;22.98;14.41;100384.06;4969531;28;20454;-73
2024/03/13 09:35:44;;;;;;;4.88;4.38;;;;;;;22.39;15.05;100380.03;4938419;29;20513;-74
2024/03/13 09:38:12;;;;;;;5.50;4.80;;;;;;;22.31;15.43;100372.97;4938561;29;20043;-73
2024/03/13 09:40:45;;;;;;;5.18;4.68;;;;;;;22.27;14.98;100365.50;4938075;29;20153;-73
2024/03/13 09:43:16;;;;;;;4.90;4.50;;;;;;;23.31;14.91;100366.72;4938399;29;20129;-72
2024/03/13 09:45:47;;;;;;;5.75;4.20;;;;;;;23.22;14.86;100360.72;4939428;28;20114;-73
2024/03/13 09:48:18;;;;;;;;;;;;;;;23.79;14.38;100398.34;4973014;28;20066;-73
2024/03/13 09:50:51;;;;;;;6.85;5.28;;;;;;;22.53;14.99;100368.94;4972309;28;19917;-73
2024/03/13 09:53:19;;;;;;;6.97;4.95;;;;;;;22.54;15.16;100377.91;4941317;28;20337;-73
2024/03/13 09:55:48;;;;;;;5.25;4.82;;;;;;;21.61;16.04;100381.13;4989473;28;20042;-73
2024/03/13 09:58:20;;;;;;;5.25;4.70;;;;;;;20.82;16.33;100376.75;4925649;28;20158;-73
2024/03/13 10:00:53;;;;;;;5.90;5.07;;;;;;;20.34;16.88;100381.44;4992708;28;20050;-73
2024/03/13 10:03:24;;;;;;;5.15;4.63;;;;;;;19.93;16.89;100380.59;4977814;28;20054;-73
2024/03/13 10:06:12;;;;;;;4.63;4.15;;;;;;;19.50;17.84;100371.84;4946723;28;20054;-73
2024/03/13 10:09:15;;;;;;;6.13;4.53;;;;;;;19.08;17.71;100377.28;4941935;28;20046;-73
2024/03/13 10:12:05;;;;;;;5.05;4.65;;;;;;;18.96;18.09;100381.53;4911931;29;20078;-72
2024/03/13 10:14:41;;;;;;;5.57;4.43;;;;;;;19.48;17.85;100371.22;4891768;29;20055;-73
2024/03/13 10:17:20;;;;;;;4.55;4.18;;;;;;;19.07;17.85;100375.63;4892542;29;20063;-72
2024/03/13 10:19:56;;;;;;;4.78;4.00;;;;;;;18.99;18.14;100351.53;4862595;29;20055;-73
2024/03/13 10:22:40;;;;;;;4.75;4.07;;;;;;;19.29;17.85;100363.00;4920128;29;20087;-73
2024/03/13 10:25:29;;;;;;;5.68;4.25;;;;;;;19.41;18.08;100370.34;4866166;29;20057;-73
2024/03/13 10:28:04;;;;;;;4.30;3.90;;;;;;;19.71;17.54;100350.19;4884919;29;20171;-73
2024/03/13 10:30:36;;;;;;;5.05;4.65;;;;;;;19.21;18.06;100376.56;4890884;29;20396;-72
2024/03/13 10:33:06;;;;;;;5.15;4.65;;;;;;;19.00;18.31;100360.47;4884723;29;20083;-72
2024/03/13 10:35:35;;;;;;;5.15;4.40;;;;;;;18.73;18.64;100369.34;4903488;29;20071;-72
2024/03/13 10:38:12;;;;;;;5.82;4.03;;;;;;;18.19;18.67;100372.44;4903052;29;20048;-73
2024/03/13 10:40:42;;;;;;;6.78;4.10;;;;;;;18.21;18.94;100345.34;4950128;28;20055;-74
2024/03/13 10:43:36;;;;;;;4.43;3.97;;;;;;;18.79;18.66;100361.31;4920393;29;20048;-76
2024/03/13 10:46:04;;;;;;;4.75;4.00;;;;;;;19.52;17.82;100382.44;4920857;29;20124;-75
2024/03/13 10:48:32;;;;;;;5.13;4.38;;;;;;;19.07;17.97;100350.56;4967307;28;20158;-75
2024/03/13 10:51:16;;;;;;;6.00;4.55;;;;;;;19.12;18.52;100364.28;4965157;28;20091;-75
2024/03/13 10:53:51;;;;;;;5.45;4.68;;;;;;;18.43;18.54;100361.34;4933003;29;20417;-75
2024/03/13 10:56:28;;;;;;;5.00;4.50;;;;;;;18.81;18.52;100361.94;4949306;28;20051;-75
2024/03/13 10:59:09;;;;;;;5.10;4.38;;;;;;;17.96;19.00;100338.63;4917436;29;20445;-75
2024/03/13 11:01:40;;;;;;;6.50;4.35;;;;;;;17.71;19.03;100359.63;4948966;28;20139;-75
2024/03/13 11:04:06;;;;;;;6.47;4.05;;;;;;;17.98;19.27;100341.97;4936569;29;20051;-75
2024/03/13 11:06:32;;;;;;;4.88;4.10;;;;;;;18.36;18.87;100335.38;4946942;28;20056;-75
2024/03/13 11:09:04;;;;;;;6.07;3.90;;;;;;;18.12;19.02;100338.44;4930812;29;20135;-74
2024/03/13 11:11:31;;;;;;;4.70;4.30;;;;;;;17.72;19.27;100347.03;4909851;28;20081;-75
2024/03/13 11:13:59;;;;;;;7.13;4.45;;;;;;;17.23;19.76;100351.25;4957384;28;20042;-75
2024/03/13 11:16:25;;;;;;;5.10;4.60;;;;;;;16.60;20.22;100331.03;4996127;28;20100;-76
2024/03/13 11:18:56;;;;;;;4.88;4.38;;;;;;;16.47;20.52;100338.81;4988790;28;20075;-75
2024/03/13 11:21:49;;;;;;;4.78;4.20;;;;;;;16.18;20.84;100335.13;5034625;28;20066;-75
2024/03/13 11:24:23;;;;;;;4.90;4.10;;;;;;;15.99;20.96;100338.28;4978912;28;20464;-75
2024/03/13 11:26:52;;;;;;;6.38;4.25;;;;;;;15.99;21.17;100328.38;4995051;28;20123;-75
2024/03/13 11:29:29;;;;;;;8.35;4.35;;;;;;;16.01;21.26;100323.69;4978884;28;20069;-76
2024/03/13 11:32:03;;;;;;;5.20;3.72;;;;;;;16.22;21.01;100334.59;4964199;28;20061;-75
2024/03/13 11:34:36;;;;;;;7.18;3.72;;;;;;;15.45;21.40;100323.94;4995374;28;20046;-76
2024/03/13 11:37:07;;;;;;;7.20;3.30;;;;;;;15.23;21.72;100320.13;4978974;28;20676;-76
2024/03/13 11:39:33;;;;;;;3.13;2.80;;;;;;;15.03;22.05;100318.81;4956220;28;20213;-75
2024/03/13 11:42:13;;;;;;;3.90;3.35;;;;;;;15.14;22.26;100314.94;4956137;28;20540;-75
2024/03/13 11:44:45;;;;;;;3.88;2.80;;;;;;;15.40;22.25;100312.91;4956127;28;20061;-74
2024/03/13 11:47:16;;;;;;;3.17;2.40;;;;;;;15.64;22.05;100318.16;4955115;28;20061;-74
2024/03/13 11:49:42;;;;;;;3.88;2.60;;;;;;;14.79;22.08;100310.81;4940315;28;20066;-74
2024/03/13 11:52:16;;;;;;;2.78;2.13;;;;;;;13.89;23.64;100293.16;4947529;28;20152;-75
2024/03/13 11:54:46;;;;;;;4.22;1.90;;;;;;;12.98;24.46;100301.91;4984716;28;20049;-74
2024/03/13 11:57:13;;;;;;;3.45;2.00;;;;;;;12.33;25.01;100308.56;4980925;28;20138;-74